createdAt,value
2022-12-14T00:01:50.194Z,-1.20
2022-12-14T00:04:16.935Z,-1.20
2022-12-14T00:06:43.781Z,-1.20
2022-12-14T00:09:14.038Z,-1.20
2022-12-14T00:11:46.285Z,-1.20
2022-12-14T00:14:13.062Z,-1.20
2022-12-14T00:16:45.469Z,-1.20
2022-12-14T00:19:12.280Z,-1.20
2022-12-14T00:21:42.120Z,-1.20
2022-12-14T00:24:09.860Z,-1.20
2022-12-14T00:26:38.570Z,-1.20
2022-12-14T00:29:11.080Z,-1.20
2022-12-14T00:31:37.838Z,-1.10
2022-12-14T00:34:04.550Z,-1.10
2022-12-14T00:36:35.794Z,-1.10
2022-12-14T00:39:04.004Z,-1.10
2022-12-14T00:41:30.580Z,-1.10
2022-12-14T00:43:57.353Z,-1.10
2022-12-14T00:46:26.058Z,-1.10
2022-12-14T00:48:52.777Z,-1.10
2022-12-14T00:51:24.576Z,-1.00
2022-12-14T00:53:51.389Z,-1.00
2022-12-14T00:56:19.422Z,-1.00
2022-12-14T00:58:53.545Z,-1.00
2022-12-14T01:01:21.803Z,-1.00
2022-12-14T01:04:13.604Z,-1.00
2022-12-14T01:06:40.384Z,-1.00
2022-12-14T01:09:06.996Z,-1.00
2022-12-14T01:11:35.927Z,-1.00
2022-12-14T01:14:03.028Z,-1.00
2022-12-14T01:16:29.713Z,-1.00
2022-12-14T01:18:57.948Z,-1.00
2022-12-14T01:21:25.139Z,-1.00
2022-12-14T01:23:54.889Z,-1.00
2022-12-14T01:26:23.521Z,-1.10
2022-12-14T01:28:53.092Z,-1.10
2022-12-14T01:31:21.682Z,-1.10
2022-12-14T01:33:50.882Z,-1.10
2022-12-14T01:36:22.485Z,-1.10
2022-12-14T01:38:57.163Z,-1.10
2022-12-14T01:41:28.579Z,-1.10
2022-12-14T01:44:00.416Z,-1.10
2022-12-14T01:46:41.645Z,-1.10
2022-12-14T01:49:25.286Z,-1.10
2022-12-14T01:51:59.810Z,-1.10
2022-12-14T01:54:32.390Z,-1.10
2022-12-14T02:03:02.820Z,-1.00
2022-12-14T02:05:33.188Z,-1.00
2022-12-14T02:08:00.146Z,-1.00
2022-12-14T02:10:29.762Z,-1.00
2022-12-14T02:13:08.262Z,-1.00
2022-12-14T02:15:36.819Z,-1.00
2022-12-14T02:18:08.200Z,-1.00
2022-12-14T02:21:08.197Z,-1.00
2022-12-14T02:23:57.972Z,-1.00
2022-12-14T02:26:39.366Z,-1.00
2022-12-14T02:29:38.821Z,-1.00
2022-12-14T02:32:23.950Z,-1.00
2022-12-14T02:35:15.719Z,-1.00
2022-12-14T02:37:54.472Z,-1.00
2022-12-14T02:40:48.307Z,-1.00
2022-12-14T02:43:58.923Z,-0.90
2022-12-14T02:46:57.517Z,-0.90
2022-12-14T02:49:49.164Z,-0.90
2022-12-14T02:52:52.826Z,-0.90
2022-12-14T02:55:26.776Z,-0.90
2022-12-14T02:58:05.094Z,-0.80
2022-12-14T03:00:36.942Z,-0.90
2022-12-14T03:03:07.490Z,-0.80
2022-12-14T03:05:37.017Z,-0.80
2022-12-14T03:08:16.967Z,-0.80
2022-12-14T03:11:02.308Z,-0.80
2022-12-14T03:13:57.244Z,-0.80
2022-12-14T03:16:29.286Z,-0.80
2022-12-14T03:19:19.962Z,-0.80
2022-12-14T03:21:58.709Z,-0.80
2022-12-14T03:24:33.909Z,-0.80
2022-12-14T03:27:09.230Z,-0.70
2022-12-14T03:30:01.501Z,-0.70
2022-12-14T03:32:31.121Z,-0.70
2022-12-14T03:35:03.300Z,-0.70
2022-12-14T03:37:40.907Z,-0.70
2022-12-14T03:40:10.217Z,-0.70
2022-12-14T03:42:58.471Z,-0.70
2022-12-14T03:45:38.197Z,-0.70
2022-12-14T03:48:27.414Z,-0.60
2022-12-14T03:51:18.823Z,-0.60
2022-12-14T03:53:55.790Z,-0.60
2022-12-14T03:56:28.473Z,-0.60
2022-12-14T03:59:13.763Z,-0.60
2022-12-14T04:01:55.049Z,-0.60
2022-12-14T04:04:56.917Z,-0.60
2022-12-14T04:07:34.734Z,-0.60
2022-12-14T04:10:27.033Z,-0.60
2022-12-14T04:13:21.410Z,-0.60
2022-12-14T04:16:09.463Z,-0.50
2022-12-14T04:22:19.122Z,-0.50
2022-12-14T04:25:07.888Z,-0.50
2022-12-14T04:27:34.721Z,-0.50
2022-12-14T04:30:03.375Z,-0.50
2022-12-14T04:32:38.360Z,-0.50
2022-12-14T04:35:34.928Z,-0.50
2022-12-14T04:38:18.003Z,-0.50
2022-12-14T04:41:03.100Z,-0.50
2022-12-14T04:43:39.702Z,-0.50
2022-12-14T04:46:13.193Z,-0.50
2022-12-14T04:49:06.681Z,-0.40
2022-12-14T04:52:03.463Z,-0.50
2022-12-14T04:54:59.830Z,-0.40
2022-12-14T04:57:51.380Z,-0.50
2022-12-14T05:00:18.468Z,-0.40
2022-12-14T05:02:48.731Z,-0.40
2022-12-14T05:05:24.899Z,-0.40
2022-12-14T05:07:59.917Z,-0.40
2022-12-14T05:10:42.768Z,-0.40
2022-12-14T05:13:14.508Z,-0.40
2022-12-14T05:15:45.521Z,-0.40
2022-12-14T05:18:16.731Z,-0.50
2022-12-14T05:20:47.174Z,-0.50
2022-12-14T05:23:15.965Z,-0.50
2022-12-14T05:25:42.991Z,-0.50
2022-12-14T05:28:12.063Z,-0.50
2022-12-14T05:30:39.420Z,-0.50
2022-12-14T05:33:06.394Z,-0.50
2022-12-14T05:35:34.839Z,-0.50
2022-12-14T05:38:03.864Z,-0.50
2022-12-14T05:40:36.577Z,-0.50
2022-12-14T05:43:06.895Z,-0.50
2022-12-14T05:45:33.532Z,-0.50
2022-12-14T05:48:00.497Z,-0.50
2022-12-14T05:50:31.800Z,-0.50
2022-12-14T05:52:58.567Z,-0.50
2022-12-14T05:55:28.365Z,-0.50
2022-12-14T05:57:57.622Z,-0.60
2022-12-14T06:03:15.568Z,-0.60
2022-12-14T06:05:42.229Z,-0.60
2022-12-14T06:08:20.863Z,-0.60
2022-12-14T06:10:48.298Z,-0.60
2022-12-14T06:13:16.883Z,-0.60
2022-12-14T06:15:43.661Z,-0.70
2022-12-14T06:18:10.453Z,-0.70
2022-12-14T06:20:37.407Z,-0.70
2022-12-14T06:23:06.154Z,-0.70
2022-12-14T06:25:32.950Z,-0.70
2022-12-14T06:28:04.194Z,-0.70
2022-12-14T06:30:31.045Z,-0.70
2022-12-14T06:32:58.965Z,-0.70
2022-12-14T06:35:27.958Z,-0.70
2022-12-14T06:37:55.937Z,-0.70
2022-12-14T06:40:28.937Z,-0.70
2022-12-14T06:45:53.032Z,-0.70
2022-12-14T06:48:21.581Z,-0.70
2022-12-14T06:50:48.654Z,-0.70
2022-12-14T06:53:17.611Z,-0.70
2022-12-14T06:56:06.711Z,-0.70
2022-12-14T06:58:40.842Z,-0.70
2022-12-14T07:01:14.035Z,-0.70
2022-12-14T07:03:41.747Z,-0.70
2022-12-14T07:06:09.745Z,-0.80
2022-12-14T07:08:40.090Z,-0.70
2022-12-14T07:11:12.269Z,-0.70
2022-12-14T07:13:41.902Z,-0.70
2022-12-14T07:16:15.731Z,-0.70
2022-12-14T07:18:42.906Z,-0.70
2022-12-14T07:21:14.367Z,-0.70
2022-12-14T07:23:42.783Z,-0.70
2022-12-14T07:26:18.150Z,-0.70
2022-12-14T07:28:45.780Z,-0.60
2022-12-14T07:31:37.275Z,-0.60
2022-12-14T07:34:06.066Z,-0.60
2022-12-14T07:36:32.907Z,-0.50
2022-12-14T07:39:01.916Z,-0.50
2022-12-14T07:41:31.099Z,-0.50
2022-12-14T07:44:03.441Z,-0.50
2022-12-14T07:46:33.913Z,-0.50
2022-12-14T07:49:01.648Z,-0.50
2022-12-14T07:51:32.764Z,-0.40
2022-12-14T07:54:00.863Z,-0.50
2022-12-14T07:56:33.637Z,-0.50
2022-12-14T07:59:02.527Z,-0.50
2022-12-14T08:01:31.685Z,-0.50
2022-12-14T08:04:07.402Z,-0.50
2022-12-14T08:06:36.947Z,-0.50
2022-12-14T08:09:04.438Z,-0.50
2022-12-14T08:11:38.479Z,-0.50
2022-12-14T08:14:08.405Z,-0.60
2022-12-14T08:16:37.548Z,-0.60
2022-12-14T08:19:04.207Z,-0.50
2022-12-14T08:21:30.966Z,-0.50
2022-12-14T08:23:58.530Z,-0.50
2022-12-14T08:26:30.057Z,-0.50
2022-12-14T08:29:00.403Z,-0.50
2022-12-14T08:31:27.561Z,-0.50
2022-12-14T08:34:00.108Z,-0.50
2022-12-14T08:36:33.493Z,-0.40
2022-12-14T08:39:03.302Z,-0.40
2022-12-14T08:41:34.044Z,-0.40
2022-12-14T08:44:02.823Z,-0.40
2022-12-14T08:46:32.708Z,-0.30
2022-12-14T08:48:59.602Z,-0.30
2022-12-14T08:51:27.748Z,-0.30
2022-12-14T08:53:55.960Z,-0.30
2022-12-14T08:56:25.436Z,-0.30
2022-12-14T08:58:52.735Z,-0.20
2022-12-14T09:01:32.330Z,-0.20
2022-12-14T09:04:05.726Z,-0.20
2022-12-14T09:06:36.149Z,-0.10
2022-12-14T09:09:11.948Z,-0.10
2022-12-14T09:11:45.862Z,-0.10
2022-12-14T09:14:13.185Z,-0.10
2022-12-14T09:16:43.785Z,-0.10
2022-12-14T09:19:16.497Z,-0.10
2022-12-14T09:24:27.713Z,-0.10
2022-12-14T09:27:01.634Z,-0.10
2022-12-14T09:29:31.249Z,0.00
2022-12-14T09:32:00.106Z,-0.10
2022-12-14T09:34:27.095Z,-0.10
2022-12-14T09:36:55.578Z,0.00
2022-12-14T09:39:22.250Z,0.00
2022-12-14T09:42:26.452Z,0.00
2022-12-14T09:45:18.071Z,0.00
2022-12-14T09:48:17.620Z,0.00
2022-12-14T09:50:51.543Z,0.00
2022-12-14T09:53:25.530Z,0.00
2022-12-14T09:55:56.955Z,0.10
2022-12-14T09:58:32.006Z,0.10
2022-12-14T10:00:59.269Z,0.10
2022-12-14T10:03:54.204Z,0.20
2022-12-14T10:06:33.456Z,0.20
2022-12-14T10:09:20.705Z,0.20
2022-12-14T10:11:52.597Z,0.20
2022-12-14T10:14:38.414Z,0.30
2022-12-14T10:17:20.032Z,0.30
2022-12-14T10:19:54.045Z,0.30
2022-12-14T10:22:38.941Z,0.30
2022-12-14T10:25:36.644Z,0.40
2022-12-14T10:28:13.620Z,0.40
2022-12-14T10:30:47.628Z,0.40
2022-12-14T10:33:20.762Z,0.40
2022-12-14T10:36:24.659Z,0.50
2022-12-14T10:39:06.716Z,0.50
2022-12-14T10:41:40.057Z,0.60
2022-12-14T10:44:33.809Z,0.60
2022-12-14T10:47:15.385Z,0.60
2022-12-14T10:49:57.969Z,0.70
2022-12-14T10:52:35.386Z,0.70
2022-12-14T10:55:14.449Z,0.70
2022-12-14T10:57:47.906Z,0.80
2022-12-14T11:00:22.839Z,0.90
2022-12-14T11:02:55.130Z,1.00
2022-12-14T11:05:56.179Z,1.00
2022-12-14T11:08:43.808Z,1.00
2022-12-14T11:11:22.020Z,1.00
2022-12-14T11:14:07.122Z,1.00
2022-12-14T11:16:40.242Z,1.10
2022-12-14T11:19:25.052Z,1.20
2022-12-14T11:22:17.122Z,1.30
2022-12-14T11:24:47.953Z,1.40
2022-12-14T11:27:20.658Z,1.50
2022-12-14T11:29:48.578Z,1.50
2022-12-14T11:32:20.501Z,1.50
2022-12-14T11:34:55.741Z,1.50
2022-12-14T11:37:30.312Z,1.60
2022-12-14T11:40:03.257Z,1.50
2022-12-14T11:42:31.264Z,1.50
2022-12-14T11:45:27.049Z,1.50
2022-12-14T11:48:30.443Z,1.40
2022-12-14T11:51:15.459Z,1.30
2022-12-14T11:53:44.581Z,1.40
2022-12-14T11:56:17.363Z,1.30
2022-12-14T11:58:52.200Z,1.30
2022-12-14T12:01:27.900Z,1.10
2022-12-14T12:03:57.883Z,1.10
2022-12-14T12:06:27.448Z,1.00
2022-12-14T12:09:02.737Z,1.00
2022-12-14T12:11:32.691Z,1.00
2022-12-14T12:14:03.256Z,1.00
2022-12-14T12:16:32.347Z,1.10
2022-12-14T12:19:11.828Z,1.00
2022-12-14T12:21:44.324Z,1.00
2022-12-14T12:24:10.979Z,1.00
2022-12-14T12:27:02.413Z,1.00
2022-12-14T12:29:31.286Z,1.00
2022-12-14T12:32:07.088Z,1.00
2022-12-14T12:34:43.383Z,0.90
2022-12-14T12:37:26.284Z,0.90
2022-12-14T12:40:18.600Z,0.80
2022-12-14T12:42:50.225Z,0.70
2022-12-14T12:45:48.880Z,0.60
2022-12-14T12:48:34.200Z,0.60
2022-12-14T12:51:07.367Z,0.60
2022-12-14T12:53:39.694Z,0.60
2022-12-14T12:56:14.384Z,0.60
2022-12-14T12:58:52.938Z,0.70
2022-12-14T13:01:32.808Z,0.60
2022-12-14T13:04:27.306Z,0.60
2022-12-14T13:07:10.206Z,0.70
2022-12-14T13:09:45.797Z,0.70
2022-12-14T13:12:43.132Z,0.70
2022-12-14T13:15:48.220Z,0.80
2022-12-14T13:18:57.352Z,0.80
2022-12-14T13:21:27.890Z,0.80
2022-12-14T13:23:54.855Z,0.80
2022-12-14T13:27:00.893Z,0.80
2022-12-14T13:30:12.584Z,0.80
2022-12-14T13:33:17.859Z,0.80
2022-12-14T13:36:17.455Z,0.90
2022-12-14T13:39:28.171Z,0.90
2022-12-14T13:42:09.668Z,0.90
2022-12-14T13:44:51.836Z,0.80
2022-12-14T13:47:47.889Z,0.80
2022-12-14T13:50:41.931Z,0.70
2022-12-14T13:53:15.536Z,0.60
2022-12-14T13:55:55.020Z,0.60
2022-12-14T13:58:40.762Z,0.60
2022-12-14T14:01:46.286Z,0.50
2022-12-14T14:04:15.611Z,0.50
2022-12-14T14:06:50.827Z,0.50
2022-12-14T14:09:26.094Z,0.50
2022-12-14T14:12:44.190Z,0.60
2022-12-14T14:15:34.739Z,0.50
2022-12-14T14:18:06.430Z,0.50
2022-12-14T14:21:11.548Z,0.50
2022-12-14T14:24:19.921Z,0.50
2022-12-14T14:27:23.785Z,0.50
2022-12-14T14:29:51.505Z,0.50
2022-12-14T14:32:40.576Z,0.50
2022-12-14T14:35:35.238Z,0.50
2022-12-14T14:38:38.343Z,0.50
2022-12-14T14:41:32.174Z,0.40
2022-12-14T14:44:05.184Z,0.30
2022-12-14T14:46:48.802Z,0.30
2022-12-14T14:49:29.831Z,0.30
2022-12-14T14:52:25.351Z,0.30
2022-12-14T14:55:27.762Z,0.30
2022-12-14T14:58:00.144Z,0.30
2022-12-14T15:00:28.948Z,0.30
2022-12-14T15:02:57.656Z,0.20
2022-12-14T15:05:42.707Z,0.20
2022-12-14T15:08:45.792Z,0.10
2022-12-14T15:11:22.145Z,0.20
2022-12-14T15:14:13.605Z,0.20
2022-12-14T15:16:44.864Z,0.20
2022-12-14T15:19:35.239Z,0.20
2022-12-14T15:22:18.807Z,0.20
2022-12-14T15:24:48.042Z,0.20
2022-12-14T15:27:25.319Z,0.30
2022-12-14T15:30:02.620Z,0.30
2022-12-14T15:32:34.444Z,0.20
2022-12-14T15:35:30.387Z,0.20
2022-12-14T15:38:01.867Z,0.20
2022-12-14T15:40:33.896Z,0.20
2022-12-14T15:43:14.766Z,0.20
2022-12-14T15:45:43.356Z,0.10
2022-12-14T15:48:31.029Z,0.10
2022-12-14T15:51:03.216Z,0.00
2022-12-14T15:53:53.880Z,0.00
2022-12-14T15:56:39.354Z,0.00
2022-12-14T15:59:16.942Z,-0.10
2022-12-14T16:01:55.834Z,-0.10
2022-12-14T16:04:28.450Z,-0.10
2022-12-14T16:07:09.836Z,-0.10
2022-12-14T16:09:50.022Z,-0.10
2022-12-14T16:12:33.544Z,-0.10
2022-12-14T16:15:02.388Z,-0.10
2022-12-14T16:17:50.187Z,-0.10
2022-12-14T16:20:20.144Z,-0.20
2022-12-14T16:23:01.115Z,-0.20
2022-12-14T16:26:02.072Z,-0.20
2022-12-14T16:28:31.087Z,-0.20
2022-12-14T16:31:19.743Z,-0.20
2022-12-14T16:34:10.816Z,-0.20
2022-12-14T16:36:37.808Z,-0.30
2022-12-14T16:39:22.904Z,-0.30
2022-12-14T16:41:59.934Z,-0.30
2022-12-14T16:44:48.127Z,-0.30
2022-12-14T16:50:54.968Z,-0.40
2022-12-14T17:02:37.400Z,-0.40
2022-12-14T17:17:03.598Z,-0.40
2022-12-14T17:19:47.393Z,-0.40
2022-12-14T17:22:30.855Z,-0.40
2022-12-14T17:25:02.856Z,-0.40
2022-12-14T17:28:20.038Z,-0.30
2022-12-14T17:39:24.342Z,-0.40
2022-12-14T17:42:01.740Z,-0.40
2022-12-14T17:47:34.697Z,-0.40
2022-12-14T17:50:15.640Z,-0.50
2022-12-14T17:52:49.621Z,-0.50
2022-12-14T17:55:28.182Z,-0.50
2022-12-14T17:57:57.300Z,-0.50
2022-12-14T18:03:50.773Z,-0.50
2022-12-14T18:06:20.262Z,-0.50
2022-12-14T18:08:54.231Z,-0.60
2022-12-14T18:11:31.019Z,-0.60
2022-12-14T18:14:04.040Z,-0.60
2022-12-14T18:17:04.404Z,-0.60
2022-12-14T18:19:35.466Z,-0.50
2022-12-14T18:22:07.339Z,-0.60
2022-12-14T18:24:37.825Z,-0.60
2022-12-14T18:27:06.684Z,-0.60
2022-12-14T18:29:39.031Z,-0.60
2022-12-14T18:32:05.962Z,-0.60
2022-12-14T18:34:32.717Z,-0.60
2022-12-14T18:37:01.108Z,-0.60
2022-12-14T18:39:30.791Z,-0.60
2022-12-14T18:42:02.208Z,-0.60
2022-12-14T18:44:34.785Z,-0.60
2022-12-14T18:47:20.465Z,-0.70
2022-12-14T18:50:01.288Z,-0.70
2022-12-14T18:52:28.089Z,-0.70
2022-12-14T18:55:25.493Z,-0.70
2022-12-14T18:58:19.830Z,-0.70
2022-12-14T19:01:00.400Z,-0.70
2022-12-14T19:03:31.974Z,-0.70
2022-12-14T19:08:53.998Z,-0.70
2022-12-14T19:11:38.707Z,-0.70
2022-12-14T19:14:11.077Z,-0.70
2022-12-14T19:16:40.376Z,-0.70
2022-12-14T19:19:07.116Z,-0.60
2022-12-14T19:21:33.753Z,-0.60
2022-12-14T19:24:08.814Z,-0.70
2022-12-14T19:26:41.024Z,-0.60
2022-12-14T19:29:10.009Z,-0.60
2022-12-14T19:31:37.047Z,-0.60
2022-12-14T19:34:04.170Z,-0.60
2022-12-14T19:36:41.120Z,-0.60
2022-12-14T19:39:08.177Z,-0.60
2022-12-14T19:41:37.902Z,-0.70
2022-12-14T19:44:26.802Z,-0.70
2022-12-14T19:47:02.965Z,-0.70
2022-12-14T19:49:35.035Z,-0.60
2022-12-14T19:52:01.802Z,-0.60
2022-12-14T19:54:34.083Z,-0.60
2022-12-14T19:57:02.897Z,-0.60
2022-12-14T19:59:29.596Z,-0.60
2022-12-14T20:02:01.054Z,-0.70
2022-12-14T20:04:30.772Z,-0.70
2022-12-14T20:06:57.739Z,-0.70
2022-12-14T20:09:27.040Z,-0.70
2022-12-14T20:12:02.996Z,-0.70
2022-12-14T20:14:29.802Z,-0.70
2022-12-14T20:16:57.818Z,-0.60
2022-12-14T20:19:30.982Z,-0.60
2022-12-14T20:21:58.013Z,-0.60
2022-12-14T20:24:28.107Z,-0.60
2022-12-14T20:27:00.020Z,-0.60
2022-12-14T20:29:26.906Z,-0.50
2022-12-14T20:31:55.039Z,-0.50
2022-12-14T20:34:24.607Z,-0.50
2022-12-14T20:36:54.829Z,-0.50
2022-12-14T20:39:21.718Z,-0.50
2022-12-14T20:41:52.613Z,-0.50
2022-12-14T20:44:19.434Z,-0.50
2022-12-14T20:46:50.952Z,-0.50
2022-12-14T20:49:20.343Z,-0.50
2022-12-14T20:51:49.716Z,-0.50
2022-12-14T20:54:18.967Z,-0.60
2022-12-14T20:56:49.149Z,-0.50
2022-12-14T20:59:16.706Z,-0.50
2022-12-14T21:01:43.981Z,-0.50
2022-12-14T21:04:12.954Z,-0.50
2022-12-14T21:06:42.873Z,-0.50
2022-12-14T21:09:14.440Z,-0.50
2022-12-14T21:12:12.198Z,-0.50
2022-12-14T21:14:46.246Z,-0.50
2022-12-14T21:17:21.113Z,-0.50
2022-12-14T21:19:48.103Z,-0.50
2022-12-14T21:22:20.470Z,-0.60
2022-12-14T21:25:05.292Z,-0.60
2022-12-14T21:27:37.899Z,-0.60
2022-12-14T21:30:08.765Z,-0.60
2022-12-14T21:32:37.288Z,-0.60
2022-12-14T21:35:05.927Z,-0.60
2022-12-14T21:37:37.137Z,-0.60
2022-12-14T21:40:04.813Z,-0.60
2022-12-14T21:42:31.880Z,-0.70
2022-12-14T21:45:01.897Z,-0.70
2022-12-14T21:47:53.661Z,-0.80
2022-12-14T21:50:20.455Z,-0.80
2022-12-14T21:52:47.112Z,-0.80
2022-12-14T21:55:26.367Z,-0.70
2022-12-14T21:58:12.505Z,-0.70
2022-12-14T22:00:42.548Z,-0.70
2022-12-14T22:03:09.471Z,-0.60
2022-12-14T22:05:43.260Z,-0.60
2022-12-14T22:08:09.996Z,-0.60
2022-12-14T22:10:37.788Z,-0.60
2022-12-14T22:13:05.783Z,-0.60
2022-12-14T22:15:35.463Z,-0.60
2022-12-14T22:18:02.448Z,-0.60
2022-12-14T22:20:30.027Z,-0.70
2022-12-14T22:23:01.081Z,-0.70
2022-12-14T22:25:28.885Z,-0.70
2022-12-14T22:27:59.103Z,-0.70
2022-12-14T22:30:31.426Z,-0.70
2022-12-14T22:33:07.463Z,-0.70
2022-12-14T22:35:34.986Z,-0.60
2022-12-14T22:38:05.239Z,-0.60
2022-12-14T22:40:32.575Z,-0.60
2022-12-14T22:42:59.492Z,-0.60
2022-12-14T22:45:30.046Z,-0.60
2022-12-14T22:47:56.772Z,-0.60
2022-12-14T22:50:28.049Z,-0.60
2022-12-14T22:52:57.289Z,-0.60
2022-12-14T22:55:29.825Z,-0.60
2022-12-14T22:57:58.839Z,-0.60
2022-12-14T23:00:27.800Z,-0.60
2022-12-14T23:02:54.619Z,-0.60
2022-12-14T23:05:22.452Z,-0.60
2022-12-14T23:07:49.284Z,-0.60
2022-12-14T23:10:37.647Z,-0.60
2022-12-14T23:13:23.219Z,-0.60
2022-12-14T23:16:13.719Z,-0.70
2022-12-14T23:19:01.102Z,-0.70
2022-12-14T23:21:46.580Z,-0.70
2022-12-14T23:24:36.131Z,-0.70
2022-12-14T23:27:24.391Z,-0.70
2022-12-14T23:30:10.167Z,-0.70
2022-12-14T23:32:56.763Z,-0.70
2022-12-14T23:35:42.435Z,-0.70
2022-12-14T23:38:28.110Z,-0.70
2022-12-14T23:41:36.275Z,-0.70
2022-12-14T23:44:23.710Z,-0.70
2022-12-14T23:47:11.885Z,-0.80
2022-12-14T23:49:57.139Z,-0.70
2022-12-14T23:52:44.639Z,-0.80
2022-12-14T23:55:36.399Z,-0.70
2022-12-14T23:58:22.716Z,-0.70
